Aldine, Texas
Current Conditions -  °F | °C
As of 12:53 PM on Thursday 30 Oct 2014 (Local Time) from KIAH Reporting Station
Few Clouds Few Clouds  
Wind Chill: 74°   Ceiling: Unl
Heat Index: 74°   Visibility: 10mi
Dew Point: 51°   Wind: 3mph
Humidity: 45%   Direction: 80°E
Pressure: 30.13"   Gusts: NA
Location:  29.93°N, 95.38°W
Report Text: KIAH 301753Z 08003KT 10SM FEW070 23/11 A3013 RMK AO2 SLP201 T02330106 10239 20128 58007
Loading
Personal Weather Stations






























Interactive Weather Map
Tropical Storm Tracking
New forecast layout! Learn more

10-Day Weather Forecast

Advertisements
Track Severe Weather on mobile